sensor_id;sensor_type;location;lat;lon;timestamp;P1;durP1;ratioP1;P2;durP2;ratioP2
1054;SDS011;516;51.482;7.120;2023-12-20T00:01:31;36.40;;;21.00;;
1054;SDS011;516;51.482;7.120;2023-12-20T00:07:01;40.40;;;20.47;;
1054;SDS011;516;51.482;7.120;2023-12-20T00:12:31;42.67;;;20.43;;
1054;SDS011;516;51.482;7.120;2023-12-20T00:18:00;37.57;;;18.57;;
1054;SDS011;516;51.482;7.120;2023-12-20T00:23:30;32.13;;;17.57;;
1054;SDS011;516;51.482;7.120;2023-12-20T00:29:00;27.10;;;14.47;;
1054;SDS011;516;51.482;7.120;2023-12-20T00:34:29;20.57;;;10.27;;
1054;SDS011;516;51.482;7.120;2023-12-20T00:49:00;10.83;;;6.70;;
1054;SDS011;516;51.482;7.120;2023-12-20T00:54:29;24.93;;;12.00;;
1054;SDS011;516;51.482;7.120;2023-12-20T00:59:59;14.03;;;9.33;;
1054;SDS011;516;51.482;7.120;2023-12-20T01:05:29;21.23;;;9.73;;
1054;SDS011;516;51.482;7.120;2023-12-20T01:10:59;22.20;;;11.07;;
1054;SDS011;516;51.482;7.120;2023-12-20T01:16:28;19.60;;;8.17;;
1054;SDS011;516;51.482;7.120;2023-12-20T01:21:39;17.63;;;9.57;;
1054;SDS011;516;51.482;7.120;2023-12-20T01:27:09;17.03;;;9.27;;
1054;SDS011;516;51.482;7.120;2023-12-20T01:32:39;20.07;;;9.60;;
1054;SDS011;516;51.482;7.120;2023-12-20T01:38:08;25.90;;;11.53;;
1054;SDS011;516;51.482;7.120;2023-12-20T01:43:38;18.53;;;8.90;;
1054;SDS011;516;51.482;7.120;2023-12-20T01:49:08;21.37;;;8.47;;
1054;SDS011;516;51.482;7.120;2023-12-20T01:54:37;16.53;;;7.20;;
1054;SDS011;516;51.482;7.120;2023-12-20T02:00:08;16.63;;;7.07;;
1054;SDS011;516;51.482;7.120;2023-12-20T02:05:39;17.27;;;7.80;;
1054;SDS011;516;51.482;7.120;2023-12-20T02:11:08;20.20;;;7.27;;
1054;SDS011;516;51.482;7.120;2023-12-20T02:16:39;27.57;;;9.13;;
1054;SDS011;516;51.482;7.120;2023-12-20T02:22:09;21.50;;;8.67;;
1054;SDS011;516;51.482;7.120;2023-12-20T02:27:39;14.13;;;8.03;;
1054;SDS011;516;51.482;7.120;2023-12-20T02:33:10;18.00;;;8.27;;
1054;SDS011;516;51.482;7.120;2023-12-20T02:38:40;16.97;;;8.80;;
1054;SDS011;516;51.482;7.120;2023-12-20T02:44:10;11.20;;;7.63;;
1054;SDS011;516;51.482;7.120;2023-12-20T02:49:39;18.53;;;6.97;;
1054;SDS011;516;51.482;7.120;2023-12-20T02:55:09;16.60;;;8.40;;
1054;SDS011;516;51.482;7.120;2023-12-20T03:00:39;21.57;;;10.47;;
1054;SDS011;516;51.482;7.120;2023-12-20T03:06:08;21.57;;;9.23;;
1054;SDS011;516;51.482;7.120;2023-12-20T03:11:19;17.07;;;11.30;;
1054;SDS011;516;51.482;7.120;2023-12-20T03:16:49;14.20;;;8.53;;
1054;SDS011;516;51.482;7.120;2023-12-20T03:22:19;12.13;;;6.30;;
1054;SDS011;516;51.482;7.120;2023-12-20T03:27:48;23.27;;;7.77;;
1054;SDS011;516;51.482;7.120;2023-12-20T03:33:18;16.00;;;9.30;;
1054;SDS011;516;51.482;7.120;2023-12-20T03:38:48;10.50;;;5.23;;
1054;SDS011;516;51.482;7.120;2023-12-20T03:44:17;6.70;;;4.10;;
1054;SDS011;516;51.482;7.120;2023-12-20T03:49:47;2.43;;;2.23;;
1054;SDS011;516;51.482;7.120;2023-12-20T03:55:16;1.53;;;1.33;;
1054;SDS011;516;51.482;7.120;2023-12-20T04:00:46;8.43;;;4.23;;
1054;SDS011;516;51.482;7.120;2023-12-20T04:06:17;14.13;;;4.73;;
1054;SDS011;516;51.482;7.120;2023-12-20T04:11:46;8.23;;;3.17;;
1054;SDS011;516;51.482;7.120;2023-12-20T04:17:17;7.03;;;3.97;;
1054;SDS011;516;51.482;7.120;2023-12-20T04:22:47;18.57;;;5.20;;
1054;SDS011;516;51.482;7.120;2023-12-20T04:28:17;9.53;;;4.47;;
1054;SDS011;516;51.482;7.120;2023-12-20T04:33:47;23.50;;;5.53;;
1054;SDS011;516;51.482;7.120;2023-12-20T04:45:23;5.77;;;3.30;;
1054;SDS011;516;51.482;7.120;2023-12-20T04:50:53;9.47;;;4.80;;
1054;SDS011;516;51.482;7.120;2023-12-20T04:56:23;9.63;;;4.93;;
1054;SDS011;516;51.482;7.120;2023-12-20T05:01:52;9.10;;;5.07;;
1054;SDS011;516;51.482;7.120;2023-12-20T05:07:22;19.73;;;6.30;;
1054;SDS011;516;51.482;7.120;2023-12-20T05:12:51;14.73;;;7.13;;
1054;SDS011;516;51.482;7.120;2023-12-20T05:18:21;17.80;;;6.87;;
1054;SDS011;516;51.482;7.120;2023-12-20T05:23:52;22.13;;;6.40;;
1054;SDS011;516;51.482;7.120;2023-12-20T05:29:21;15.80;;;5.90;;
1054;SDS011;516;51.482;7.120;2023-12-20T05:34:51;13.50;;;5.50;;
1054;SDS011;516;51.482;7.120;2023-12-20T05:49:32;14.57;;;5.60;;
1054;SDS011;516;51.482;7.120;2023-12-20T05:55:02;16.87;;;6.07;;
1054;SDS011;516;51.482;7.120;2023-12-20T06:00:32;18.17;;;5.73;;
1054;SDS011;516;51.482;7.120;2023-12-20T06:06:10;19.17;;;7.10;;
1054;SDS011;516;51.482;7.120;2023-12-20T06:11:42;15.80;;;5.90;;
1054;SDS011;516;51.482;7.120;2023-12-20T06:17:12;20.67;;;7.23;;
1054;SDS011;516;51.482;7.120;2023-12-20T06:22:41;10.37;;;5.30;;
1054;SDS011;516;51.482;7.120;2023-12-20T06:28:11;12.40;;;6.80;;
1054;SDS011;516;51.482;7.120;2023-12-20T06:33:43;19.13;;;9.80;;
1054;SDS011;516;51.482;7.120;2023-12-20T06:39:14;11.10;;;5.50;;
1054;SDS011;516;51.482;7.120;2023-12-20T06:41:40;16.50;;;7.27;;
1054;SDS011;516;51.482;7.120;2023-12-20T06:44:07;11.30;;;6.40;;
1054;SDS011;516;51.482;7.120;2023-12-20T06:49:37;9.00;;;5.20;;
1054;SDS011;516;51.482;7.120;2023-12-20T06:55:06;13.53;;;6.07;;
1054;SDS011;516;51.482;7.120;2023-12-20T07:00:36;25.77;;;6.80;;
1054;SDS011;516;51.482;7.120;2023-12-20T07:06:06;10.57;;;7.90;;
1054;SDS011;516;51.482;7.120;2023-12-20T07:11:36;15.13;;;6.63;;
1054;SDS011;516;51.482;7.120;2023-12-20T07:17:05;14.60;;;6.60;;
1054;SDS011;516;51.482;7.120;2023-12-20T07:22:39;17.23;;;5.37;;
1054;SDS011;516;51.482;7.120;2023-12-20T07:28:09;6.53;;;3.30;;
1054;SDS011;516;51.482;7.120;2023-12-20T07:33:39;15.20;;;8.30;;
1054;SDS011;516;51.482;7.120;2023-12-20T07:38:49;19.97;;;7.17;;
1054;SDS011;516;51.482;7.120;2023-12-20T07:44:00;8.90;;;4.57;;
1054;SDS011;516;51.482;7.120;2023-12-20T07:49:30;20.80;;;7.57;;
1054;SDS011;516;51.482;7.120;2023-12-20T07:55:00;9.27;;;4.67;;
1054;SDS011;516;51.482;7.120;2023-12-20T08:00:30;8.53;;;4.43;;
1054;SDS011;516;51.482;7.120;2023-12-20T08:06:00;9.53;;;5.33;;
1054;SDS011;516;51.482;7.120;2023-12-20T08:11:29;16.30;;;6.00;;
1054;SDS011;516;51.482;7.120;2023-12-20T08:16:59;14.50;;;7.00;;
1054;SDS011;516;51.482;7.120;2023-12-20T08:22:29;7.67;;;6.17;;
1054;SDS011;516;51.482;7.120;2023-12-20T08:27:59;9.50;;;6.40;;
1054;SDS011;516;51.482;7.120;2023-12-20T08:33:29;10.13;;;6.13;;
1054;SDS011;516;51.482;7.120;2023-12-20T08:38:58;6.00;;;3.57;;
1054;SDS011;516;51.482;7.120;2023-12-20T08:41:37;12.67;;;4.93;;
1054;SDS011;516;51.482;7.120;2023-12-20T08:44:03;10.70;;;5.10;;
1054;SDS011;516;51.482;7.120;2023-12-20T08:49:33;11.93;;;6.10;;
1054;SDS011;516;51.482;7.120;2023-12-20T08:55:03;12.83;;;5.70;;
1054;SDS011;516;51.482;7.120;2023-12-20T09:00:32;9.87;;;5.43;;
1054;SDS011;516;51.482;7.120;2023-12-20T09:06:02;11.07;;;6.87;;
1054;SDS011;516;51.482;7.120;2023-12-20T09:11:32;15.87;;;5.67;;
1054;SDS011;516;51.482;7.120;2023-12-20T09:17:02;10.53;;;5.70;;
1054;SDS011;516;51.482;7.120;2023-12-20T09:22:31;11.47;;;4.67;;
1054;SDS011;516;51.482;7.120;2023-12-20T09:28:02;6.73;;;4.07;;
1054;SDS011;516;51.482;7.120;2023-12-20T09:33:32;10.17;;;6.30;;
1054;SDS011;516;51.482;7.120;2023-12-20T09:39:02;9.87;;;7.03;;
1054;SDS011;516;51.482;7.120;2023-12-20T09:41:37;22.20;;;5.90;;
1054;SDS011;516;51.482;7.120;2023-12-20T09:44:07;11.17;;;4.63;;
1054;SDS011;516;51.482;7.120;2023-12-20T09:49:37;14.13;;;6.30;;
1054;SDS011;516;51.482;7.120;2023-12-20T09:55:08;10.07;;;4.97;;
1054;SDS011;516;51.482;7.120;2023-12-20T10:00:38;18.33;;;5.40;;
1054;SDS011;516;51.482;7.120;2023-12-20T10:06:08;24.07;;;5.27;;
1054;SDS011;516;51.482;7.120;2023-12-20T10:11:38;8.73;;;4.67;;
1054;SDS011;516;51.482;7.120;2023-12-20T10:17:08;7.97;;;4.50;;
1054;SDS011;516;51.482;7.120;2023-12-20T10:22:37;18.07;;;5.73;;
1054;SDS011;516;51.482;7.120;2023-12-20T10:33:40;6.70;;;4.00;;
1054;SDS011;516;51.482;7.120;2023-12-20T10:39:10;8.00;;;4.57;;
1054;SDS011;516;51.482;7.120;2023-12-20T10:50:47;14.30;;;4.83;;
1054;SDS011;516;51.482;7.120;2023-12-20T10:55:58;6.83;;;4.80;;
1054;SDS011;516;51.482;7.120;2023-12-20T11:01:29;13.37;;;4.93;;
1054;SDS011;516;51.482;7.120;2023-12-20T11:12:57;7.17;;;4.70;;
1054;SDS011;516;51.482;7.120;2023-12-20T11:18:28;20.63;;;5.13;;
1054;SDS011;516;51.482;7.120;2023-12-20T11:23:59;15.97;;;5.60;;
1054;SDS011;516;51.482;7.120;2023-12-20T11:29:29;8.03;;;5.17;;
1054;SDS011;516;51.482;7.120;2023-12-20T11:35:01;10.70;;;5.33;;
1054;SDS011;516;51.482;7.120;2023-12-20T11:40:31;12.60;;;4.73;;
1054;SDS011;516;51.482;7.120;2023-12-20T11:46:03;12.73;;;5.43;;
1054;SDS011;516;51.482;7.120;2023-12-20T11:51:34;11.87;;;6.10;;
1054;SDS011;516;51.482;7.120;2023-12-20T11:57:04;16.10;;;8.30;;
1054;SDS011;516;51.482;7.120;2023-12-20T12:02:33;10.80;;;5.80;;
1054;SDS011;516;51.482;7.120;2023-12-20T12:08:03;15.87;;;6.03;;
1054;SDS011;516;51.482;7.120;2023-12-20T12:13:34;19.30;;;6.40;;
1054;SDS011;516;51.482;7.120;2023-12-20T12:19:03;11.87;;;5.37;;
1054;SDS011;516;51.482;7.120;2023-12-20T12:24:33;8.73;;;4.57;;
1054;SDS011;516;51.482;7.120;2023-12-20T12:30:03;10.50;;;7.20;;
1054;SDS011;516;51.482;7.120;2023-12-20T12:35:35;9.70;;;7.37;;
1054;SDS011;516;51.482;7.120;2023-12-20T12:41:05;13.50;;;6.77;;
1054;SDS011;516;51.482;7.120;2023-12-20T12:46:23;12.13;;;6.60;;
1054;SDS011;516;51.482;7.120;2023-12-20T12:51:52;23.67;;;9.03;;
1054;SDS011;516;51.482;7.120;2023-12-20T12:57:23;18.20;;;7.70;;
1054;SDS011;516;51.482;7.120;2023-12-20T13:02:52;15.53;;;6.17;;
1054;SDS011;516;51.482;7.120;2023-12-20T13:08:22;13.07;;;6.03;;
1054;SDS011;516;51.482;7.120;2023-12-20T13:13:52;12.10;;;7.63;;
1054;SDS011;516;51.482;7.120;2023-12-20T13:19:22;8.93;;;6.53;;
1054;SDS011;516;51.482;7.120;2023-12-20T13:24:51;10.90;;;5.27;;
1054;SDS011;516;51.482;7.120;2023-12-20T13:30:21;16.97;;;9.10;;
1054;SDS011;516;51.482;7.120;2023-12-20T13:35:50;18.23;;;8.97;;
1054;SDS011;516;51.482;7.120;2023-12-20T13:41:20;9.23;;;6.63;;
1054;SDS011;516;51.482;7.120;2023-12-20T13:43:57;12.00;;;7.17;;
1054;SDS011;516;51.482;7.120;2023-12-20T13:46:23;23.83;;;12.50;;
1054;SDS011;516;51.482;7.120;2023-12-20T13:51:53;9.17;;;8.20;;
1054;SDS011;516;51.482;7.120;2023-12-20T13:57:23;15.07;;;9.60;;
1054;SDS011;516;51.482;7.120;2023-12-20T14:02:53;10.60;;;7.47;;
1054;SDS011;516;51.482;7.120;2023-12-20T14:08:23;11.40;;;7.63;;
1054;SDS011;516;51.482;7.120;2023-12-20T14:13:52;22.50;;;12.10;;
1054;SDS011;516;51.482;7.120;2023-12-20T14:19:26;15.20;;;7.63;;
1054;SDS011;516;51.482;7.120;2023-12-20T14:24:56;17.10;;;9.90;;
1054;SDS011;516;51.482;7.120;2023-12-20T14:30:26;16.23;;;10.40;;
1054;SDS011;516;51.482;7.120;2023-12-20T14:35:56;11.60;;;5.93;;
1054;SDS011;516;51.482;7.120;2023-12-20T14:41:26;13.00;;;7.37;;
1054;SDS011;516;51.482;7.120;2023-12-20T14:43:55;22.20;;;11.23;;
1054;SDS011;516;51.482;7.120;2023-12-20T14:46:21;15.60;;;10.80;;
1054;SDS011;516;51.482;7.120;2023-12-20T14:51:50;20.87;;;13.33;;
1054;SDS011;516;51.482;7.120;2023-12-20T14:57:20;17.33;;;11.80;;
1054;SDS011;516;51.482;7.120;2023-12-20T15:02:49;16.83;;;13.40;;
1054;SDS011;516;51.482;7.120;2023-12-20T15:08:19;15.63;;;10.20;;
1054;SDS011;516;51.482;7.120;2023-12-20T15:13:50;16.47;;;8.40;;
1054;SDS011;516;51.482;7.120;2023-12-20T15:19:24;26.57;;;10.90;;
1054;SDS011;516;51.482;7.120;2023-12-20T15:24:54;15.17;;;9.17;;
1054;SDS011;516;51.482;7.120;2023-12-20T15:30:23;16.07;;;5.70;;
1054;SDS011;516;51.482;7.120;2023-12-20T15:35:53;12.97;;;6.97;;
1054;SDS011;516;51.482;7.120;2023-12-20T15:41:22;27.47;;;9.17;;
1054;SDS011;516;51.482;7.120;2023-12-20T15:43:58;26.90;;;9.60;;
1054;SDS011;516;51.482;7.120;2023-12-20T15:46:24;13.80;;;8.27;;
1054;SDS011;516;51.482;7.120;2023-12-20T15:51:53;11.57;;;6.93;;
1054;SDS011;516;51.482;7.120;2023-12-20T15:57:23;15.77;;;9.37;;
1054;SDS011;516;51.482;7.120;2023-12-20T16:02:53;12.77;;;8.73;;
1054;SDS011;516;51.482;7.120;2023-12-20T16:08:22;14.80;;;10.30;;
1054;SDS011;516;51.482;7.120;2023-12-20T16:13:33;14.90;;;10.10;;
1054;SDS011;516;51.482;7.120;2023-12-20T16:19:03;14.77;;;6.10;;
1054;SDS011;516;51.482;7.120;2023-12-20T16:24:33;20.83;;;8.47;;
1054;SDS011;516;51.482;7.120;2023-12-20T16:30:04;11.17;;;6.97;;
1054;SDS011;516;51.482;7.120;2023-12-20T16:35:34;16.83;;;9.70;;
1054;SDS011;516;51.482;7.120;2023-12-20T16:41:04;16.17;;;7.30;;
1054;SDS011;516;51.482;7.120;2023-12-20T16:46:22;16.37;;;8.60;;
1054;SDS011;516;51.482;7.120;2023-12-20T16:51:52;17.03;;;5.83;;
1054;SDS011;516;51.482;7.120;2023-12-20T16:57:22;16.10;;;8.97;;
1054;SDS011;516;51.482;7.120;2023-12-20T17:02:51;15.80;;;10.03;;
1054;SDS011;516;51.482;7.120;2023-12-20T17:08:21;14.50;;;8.70;;
1054;SDS011;516;51.482;7.120;2023-12-20T17:13:50;21.13;;;11.07;;
1054;SDS011;516;51.482;7.120;2023-12-20T17:19:21;12.47;;;6.10;;
1054;SDS011;516;51.482;7.120;2023-12-20T17:24:52;38.00;;;10.50;;
1054;SDS011;516;51.482;7.120;2023-12-20T17:30:22;15.70;;;7.70;;
1054;SDS011;516;51.482;7.120;2023-12-20T17:35:51;28.00;;;12.30;;
1054;SDS011;516;51.482;7.120;2023-12-20T17:41:21;25.57;;;10.90;;
1054;SDS011;516;51.482;7.120;2023-12-20T17:47:00;27.40;;;12.20;;
1054;SDS011;516;51.482;7.120;2023-12-20T17:52:29;17.27;;;11.33;;
1054;SDS011;516;51.482;7.120;2023-12-20T17:57:59;12.13;;;7.50;;
1054;SDS011;516;51.482;7.120;2023-12-20T18:03:28;17.50;;;7.87;;
1054;SDS011;516;51.482;7.120;2023-12-20T18:08:57;16.27;;;10.43;;
1054;SDS011;516;51.482;7.120;2023-12-20T18:14:26;17.53;;;10.47;;
1054;SDS011;516;51.482;7.120;2023-12-20T18:19:55;13.20;;;7.27;;
1054;SDS011;516;51.482;7.120;2023-12-20T18:25:28;12.37;;;8.17;;
1054;SDS011;516;51.482;7.120;2023-12-20T18:30:58;20.70;;;9.73;;
1054;SDS011;516;51.482;7.120;2023-12-20T18:36:28;16.60;;;8.20;;
1054;SDS011;516;51.482;7.120;2023-12-20T18:41:57;13.27;;;7.60;;
1054;SDS011;516;51.482;7.120;2023-12-20T18:47:27;15.63;;;10.33;;
1054;SDS011;516;51.482;7.120;2023-12-20T18:52:57;21.67;;;6.87;;
1054;SDS011;516;51.482;7.120;2023-12-20T18:58:27;11.87;;;7.53;;
1054;SDS011;516;51.482;7.120;2023-12-20T19:03:59;18.03;;;10.13;;
1054;SDS011;516;51.482;7.120;2023-12-20T19:09:29;12.30;;;7.87;;
1054;SDS011;516;51.482;7.120;2023-12-20T19:14:58;13.50;;;7.70;;
1054;SDS011;516;51.482;7.120;2023-12-20T19:20:28;23.40;;;8.93;;
1054;SDS011;516;51.482;7.120;2023-12-20T19:25:58;16.83;;;9.53;;
1054;SDS011;516;51.482;7.120;2023-12-20T19:31:30;8.30;;;5.40;;
1054;SDS011;516;51.482;7.120;2023-12-20T19:37:00;12.57;;;6.53;;
1054;SDS011;516;51.482;7.120;2023-12-20T19:42:29;9.47;;;6.30;;
1054;SDS011;516;51.482;7.120;2023-12-20T19:57:10;13.60;;;8.50;;
1054;SDS011;516;51.482;7.120;2023-12-20T20:02:40;10.93;;;6.43;;
1054;SDS011;516;51.482;7.120;2023-12-20T20:08:10;7.47;;;5.43;;
1054;SDS011;516;51.482;7.120;2023-12-20T20:13:40;17.70;;;7.53;;
1054;SDS011;516;51.482;7.120;2023-12-20T20:19:09;12.00;;;5.70;;
1054;SDS011;516;51.482;7.120;2023-12-20T20:24:39;12.37;;;9.07;;
1054;SDS011;516;51.482;7.120;2023-12-20T20:30:09;17.20;;;8.83;;
1054;SDS011;516;51.482;7.120;2023-12-20T20:35:38;11.80;;;7.50;;
1054;SDS011;516;51.482;7.120;2023-12-20T20:41:08;15.23;;;7.90;;
1054;SDS011;516;51.482;7.120;2023-12-20T20:46:38;8.73;;;7.07;;
1054;SDS011;516;51.482;7.120;2023-12-20T20:52:07;10.93;;;5.40;;
1054;SDS011;516;51.482;7.120;2023-12-20T20:57:37;14.43;;;9.30;;
1054;SDS011;516;51.482;7.120;2023-12-20T21:03:07;13.87;;;10.27;;
1054;SDS011;516;51.482;7.120;2023-12-20T21:08:37;16.70;;;8.73;;
1054;SDS011;516;51.482;7.120;2023-12-20T21:14:06;11.73;;;7.93;;
1054;SDS011;516;51.482;7.120;2023-12-20T21:19:36;7.67;;;6.87;;
1054;SDS011;516;51.482;7.120;2023-12-20T21:25:06;13.83;;;6.90;;
1054;SDS011;516;51.482;7.120;2023-12-20T21:30:39;11.87;;;8.60;;
1054;SDS011;516;51.482;7.120;2023-12-20T21:36:09;11.40;;;8.70;;
1054;SDS011;516;51.482;7.120;2023-12-20T21:41:45;7.03;;;5.00;;
1054;SDS011;516;51.482;7.120;2023-12-20T21:47:15;9.00;;;7.27;;
1054;SDS011;516;51.482;7.120;2023-12-20T22:01:45;9.07;;;6.97;;
1054;SDS011;516;51.482;7.120;2023-12-20T22:07:15;13.10;;;7.40;;
1054;SDS011;516;51.482;7.120;2023-12-20T22:12:45;18.47;;;10.03;;
1054;SDS011;516;51.482;7.120;2023-12-20T22:18:14;9.43;;;7.63;;
1054;SDS011;516;51.482;7.120;2023-12-20T22:23:44;15.20;;;10.63;;
1054;SDS011;516;51.482;7.120;2023-12-20T22:29:14;21.50;;;12.70;;
1054;SDS011;516;51.482;7.120;2023-12-20T22:34:43;13.50;;;10.50;;
1054;SDS011;516;51.482;7.120;2023-12-20T22:40:13;17.93;;;9.90;;
1054;SDS011;516;51.482;7.120;2023-12-20T22:45:44;12.43;;;8.43;;
1054;SDS011;516;51.482;7.120;2023-12-20T22:51:14;12.83;;;9.30;;
1054;SDS011;516;51.482;7.120;2023-12-20T22:56:44;12.93;;;9.20;;
1054;SDS011;516;51.482;7.120;2023-12-20T23:02:13;6.73;;;4.10;;
1054;SDS011;516;51.482;7.120;2023-12-20T23:07:44;13.00;;;7.70;;
1054;SDS011;516;51.482;7.120;2023-12-20T23:13:14;11.57;;;8.40;;
1054;SDS011;516;51.482;7.120;2023-12-20T23:18:46;9.70;;;5.77;;
1054;SDS011;516;51.482;7.120;2023-12-20T23:24:16;2.27;;;2.07;;
1054;SDS011;516;51.482;7.120;2023-12-20T23:29:45;12.37;;;9.00;;
1054;SDS011;516;51.482;7.120;2023-12-20T23:35:15;10.50;;;9.03;;
1054;SDS011;516;51.482;7.120;2023-12-20T23:40:26;8.60;;;6.27;;
1054;SDS011;516;51.482;7.120;2023-12-20T23:45:56;11.50;;;7.50;;
1054;SDS011;516;51.482;7.120;2023-12-20T23:51:26;10.13;;;8.30;;
1054;SDS011;516;51.482;7.120;2023-12-20T23:56:55;9.97;;;8.17;;
